createdAt,value
2022-09-30T00:01:11.299Z,98240.94
2022-09-30T00:03:38.834Z,98244.53
2022-09-30T00:06:08.967Z,98246.03
2022-09-30T00:08:39.136Z,98256.78
2022-09-30T00:11:08.758Z,98244.47
2022-09-30T00:13:39.095Z,98255.38
2022-09-30T00:16:07.406Z,98253.72
2022-09-30T00:18:35.026Z,98252.75
2022-09-30T00:21:02.871Z,98253.00
2022-09-30T00:23:30.481Z,98252.28
2022-09-30T00:26:04.335Z,98252.16
2022-09-30T00:28:32.093Z,98254.13
2022-09-30T00:31:00.488Z,98258.78
2022-09-30T00:33:28.519Z,98263.94
2022-09-30T00:35:56.121Z,98262.09
2022-09-30T00:38:24.041Z,98262.81
2022-09-30T00:40:51.568Z,98267.72
2022-09-30T00:43:22.695Z,98265.09
2022-09-30T00:45:52.863Z,98263.78
2022-09-30T00:48:22.377Z,98272.69
2022-09-30T00:50:55.394Z,98263.91
2022-09-30T00:53:27.266Z,98271.00
2022-09-30T00:55:58.352Z,98267.47
2022-09-30T00:58:30.739Z,98272.69
2022-09-30T01:00:59.561Z,98274.81
2022-09-30T01:03:27.227Z,98275.16
2022-09-30T01:05:54.795Z,98278.41
2022-09-30T01:08:23.242Z,98272.91
2022-09-30T01:10:50.748Z,98278.28
2022-09-30T01:13:19.233Z,98282.94
2022-09-30T01:15:58.386Z,98286.72
2022-09-30T01:18:30.660Z,98280.91
2022-09-30T01:21:15.514Z,98281.03
2022-09-30T01:24:05.319Z,98276.59
2022-09-30T01:26:59.703Z,98280.91
2022-09-30T01:29:44.814Z,98291.03
2022-09-30T01:32:19.569Z,98282.53
2022-09-30T01:34:54.442Z,98282.84
2022-09-30T01:37:26.119Z,98290.09
2022-09-30T01:40:00.750Z,98289.31
2022-09-30T01:42:35.800Z,98294.41
2022-09-30T01:45:09.454Z,98290.00
2022-09-30T01:47:44.326Z,98284.41
2022-09-30T01:50:18.093Z,98294.56
2022-09-30T01:52:50.369Z,98283.84
2022-09-30T01:55:22.053Z,98295.88
2022-09-30T01:57:53.013Z,98290.91
2022-09-30T02:00:21.095Z,98300.84
2022-09-30T02:02:52.172Z,98302.00
2022-09-30T02:05:21.917Z,98284.94
2022-09-30T02:07:53.756Z,98297.91
2022-09-30T02:10:24.796Z,98297.84
2022-09-30T02:12:56.090Z,98296.88
2022-09-30T02:15:26.093Z,98299.56
2022-09-30T02:17:58.482Z,98305.41
2022-09-30T02:20:27.743Z,98311.59
2022-09-30T02:23:03.379Z,98312.56
2022-09-30T02:25:36.277Z,98299.66
2022-09-30T02:28:07.338Z,98306.53
2022-09-30T02:30:36.549Z,98302.56
2022-09-30T02:33:08.079Z,98300.53
2022-09-30T02:35:37.656Z,98305.81
2022-09-30T02:38:10.134Z,98302.53
2022-09-30T02:40:40.711Z,98313.09
2022-09-30T02:43:08.870Z,98321.91
2022-09-30T02:45:41.007Z,98324.66
2022-09-30T02:48:19.802Z,98319.97
2022-09-30T02:50:50.391Z,98313.84
2022-09-30T02:53:23.334Z,98317.38
2022-09-30T02:56:09.401Z,98317.84
2022-09-30T02:58:39.404Z,98327.41
2022-09-30T03:01:08.379Z,98336.34
2022-09-30T03:03:40.137Z,98330.59
2022-09-30T03:06:08.015Z,98328.22
2022-09-30T03:08:36.995Z,98335.97
2022-09-30T03:11:05.033Z,98334.31
2022-09-30T03:14:03.181Z,98328.50
2022-09-30T03:16:40.649Z,98327.59
2022-09-30T03:19:22.014Z,98334.66
2022-09-30T03:22:00.320Z,98335.56
2022-09-30T03:24:37.724Z,98337.38
2022-09-30T03:27:14.608Z,98336.75
2022-09-30T03:29:47.570Z,98341.75
2022-09-30T03:32:25.897Z,98337.44
2022-09-30T03:35:03.290Z,98347.94
2022-09-30T03:37:34.529Z,98345.56
2022-09-30T03:40:07.724Z,98346.34
2022-09-30T03:42:38.006Z,98349.13
2022-09-30T03:45:08.922Z,98347.25
2022-09-30T03:47:41.217Z,98355.75
2022-09-30T03:50:11.580Z,98355.00
2022-09-30T03:52:39.308Z,98360.75
2022-09-30T03:55:09.980Z,98359.38
2022-09-30T03:57:37.520Z,98364.31
2022-09-30T04:00:06.784Z,98366.47
2022-09-30T04:02:37.826Z,98359.44
2022-09-30T04:05:06.587Z,98370.28
2022-09-30T04:07:36.020Z,98375.66
2022-09-30T04:10:03.772Z,98380.03
2022-09-30T04:12:31.290Z,98377.75
2022-09-30T04:14:58.855Z,98384.41
2022-09-30T04:17:26.373Z,98381.47
2022-09-30T04:19:53.898Z,98387.16
2022-09-30T04:22:26.156Z,98394.97
2022-09-30T04:24:55.348Z,98395.38
2022-09-30T04:27:23.217Z,98395.72
2022-09-30T04:29:50.783Z,98390.38
2022-09-30T04:32:18.387Z,98397.84
2022-09-30T04:34:45.902Z,98395.88
2022-09-30T04:37:13.957Z,98407.13
2022-09-30T04:39:41.852Z,98400.19
2022-09-30T04:42:11.237Z,98403.16
2022-09-30T04:44:38.791Z,98397.78
2022-09-30T04:47:06.694Z,98401.19
2022-09-30T04:49:34.245Z,98408.06
2022-09-30T04:52:02.079Z,98414.25
2022-09-30T04:54:29.580Z,98413.34
2022-09-30T04:56:57.083Z,98406.47
2022-09-30T04:59:25.953Z,98409.13
2022-09-30T05:01:54.450Z,98415.06
2022-09-30T05:04:21.983Z,98423.75
2022-09-30T05:06:49.893Z,98422.91
2022-09-30T05:09:17.476Z,98429.72
2022-09-30T05:11:44.996Z,98439.53
2022-09-30T05:14:12.549Z,98430.97
2022-09-30T05:16:41.430Z,98441.47
2022-09-30T05:19:09.050Z,98438.00
2022-09-30T05:21:36.602Z,98440.53
2022-09-30T05:24:04.539Z,98443.91
2022-09-30T05:26:32.898Z,98452.63
2022-09-30T05:29:00.398Z,98460.47
2022-09-30T05:31:28.045Z,98466.84
2022-09-30T05:33:58.288Z,98470.47
2022-09-30T05:36:26.008Z,98472.91
2022-09-30T05:38:53.984Z,98461.72
2022-09-30T05:41:21.984Z,98469.94
2022-09-30T05:43:49.832Z,98483.84
2022-09-30T05:46:18.101Z,98482.63
2022-09-30T05:48:46.339Z,98490.44
2022-09-30T05:51:15.325Z,98491.97
2022-09-30T05:53:43.501Z,98500.03
2022-09-30T05:56:11.790Z,98496.34
2022-09-30T05:58:40.564Z,98493.75
2022-09-30T06:01:13.486Z,98491.25
2022-09-30T06:03:41.739Z,98500.78
2022-09-30T06:06:09.403Z,98493.63
2022-09-30T06:08:38.314Z,98496.28
2022-09-30T06:11:11.741Z,98508.44
2022-09-30T06:13:40.109Z,98510.16
2022-09-30T06:16:12.616Z,98501.22
2022-09-30T06:18:41.455Z,98508.69
2022-09-30T06:21:11.391Z,98509.69
2022-09-30T06:23:40.998Z,98519.00
2022-09-30T06:26:11.592Z,98532.00
2022-09-30T06:28:39.298Z,98528.28
2022-09-30T06:31:07.922Z,98526.22
2022-09-30T06:33:35.593Z,98532.13
2022-09-30T06:36:04.556Z,98523.75
2022-09-30T06:38:32.519Z,98530.44
2022-09-30T06:41:01.923Z,98530.00
2022-09-30T06:43:29.676Z,98528.00
2022-09-30T06:46:09.460Z,98528.50
2022-09-30T06:48:41.509Z,98522.19
2022-09-30T06:51:10.805Z,98517.69
2022-09-30T06:53:39.165Z,98527.41
2022-09-30T06:56:08.264Z,98524.22
2022-09-30T06:58:35.837Z,98522.94
2022-09-30T07:01:06.211Z,98532.88
2022-09-30T07:03:36.078Z,98534.13
2022-09-30T07:06:05.959Z,98529.47
2022-09-30T07:08:34.812Z,98538.38
2022-09-30T07:11:04.158Z,98540.25
2022-09-30T07:13:34.230Z,98540.72
2022-09-30T07:16:02.309Z,98547.28
2022-09-30T07:18:29.937Z,98549.38
2022-09-30T07:20:57.889Z,98554.09
2022-09-30T07:23:27.188Z,98546.69
2022-09-30T07:25:57.643Z,98549.38
2022-09-30T07:28:27.941Z,98553.41
2022-09-30T07:31:19.852Z,98554.72
2022-09-30T07:33:46.130Z,98560.56
2022-09-30T07:36:15.875Z,98548.63
2022-09-30T07:38:43.928Z,98552.56
2022-09-30T07:41:13.458Z,98563.44
2022-09-30T07:43:43.611Z,98563.03
2022-09-30T07:46:17.396Z,98561.97
2022-09-30T07:48:47.880Z,98581.19
2022-09-30T07:51:17.383Z,98581.22
2022-09-30T07:53:49.128Z,98587.88
2022-09-30T07:56:17.374Z,98585.31
2022-09-30T07:58:45.152Z,98582.66
2022-09-30T08:01:14.477Z,98584.66
2022-09-30T08:03:44.473Z,98590.25
2022-09-30T08:06:14.805Z,98584.13
2022-09-30T08:08:43.845Z,98590.78
2022-09-30T08:11:12.766Z,98592.09
2022-09-30T08:13:40.424Z,98605.09
2022-09-30T08:16:08.402Z,98610.91
2022-09-30T08:18:37.524Z,98612.69
2022-09-30T08:21:06.289Z,98617.44
2022-09-30T08:23:34.381Z,98613.88
2022-09-30T08:26:03.499Z,98602.25
2022-09-30T08:28:31.809Z,98610.38
2022-09-30T08:31:06.579Z,98619.22
2022-09-30T08:33:34.243Z,98619.66
2022-09-30T08:36:08.770Z,98617.72
2022-09-30T08:38:36.487Z,98614.00
2022-09-30T08:41:13.078Z,98622.06
2022-09-30T08:43:47.922Z,98619.97
2022-09-30T08:46:20.140Z,98617.63
2022-09-30T08:48:53.511Z,98623.31
2022-09-30T08:51:31.815Z,98622.03
2022-09-30T08:54:02.374Z,98622.53
2022-09-30T08:56:31.670Z,98620.09
2022-09-30T08:59:02.745Z,98621.44
2022-09-30T09:01:32.235Z,98610.66
2022-09-30T09:04:00.772Z,98605.63
2022-09-30T09:06:33.873Z,98626.28
2022-09-30T09:09:26.140Z,98622.75
2022-09-30T09:12:04.403Z,98629.47
2022-09-30T09:14:40.993Z,98627.53
2022-09-30T09:17:21.002Z,98632.47
2022-09-30T09:19:53.919Z,98635.28
2022-09-30T09:22:24.998Z,98634.69
2022-09-30T09:24:54.704Z,98639.13
2022-09-30T09:27:27.792Z,98638.09
2022-09-30T09:30:06.555Z,98639.09
2022-09-30T09:32:34.836Z,98644.72
2022-09-30T09:35:07.289Z,98648.19
2022-09-30T09:37:58.860Z,98643.06
2022-09-30T09:40:35.479Z,98648.50
2022-09-30T09:43:12.195Z,98649.44
2022-09-30T09:45:43.280Z,98649.69
2022-09-30T09:48:12.702Z,98653.03
2022-09-30T09:50:47.077Z,98662.88
2022-09-30T09:53:22.548Z,98662.19
2022-09-30T09:55:51.222Z,98652.28
2022-09-30T09:58:19.150Z,98643.50
2022-09-30T10:01:12.732Z,98649.56
2022-09-30T10:03:40.310Z,98645.97
2022-09-30T10:06:10.132Z,98645.41
2022-09-30T10:08:40.486Z,98642.53
2022-09-30T10:11:09.096Z,98642.50
2022-09-30T10:13:43.163Z,98646.41
2022-09-30T10:16:28.172Z,98646.28
2022-09-30T10:18:55.848Z,98642.34
2022-09-30T10:21:25.413Z,98644.41
2022-09-30T10:23:54.492Z,98653.38
2022-09-30T10:26:24.775Z,98652.56
2022-09-30T10:28:53.830Z,98652.66
2022-09-30T10:31:24.996Z,98654.06
2022-09-30T10:33:57.850Z,98644.72
2022-09-30T10:36:31.126Z,98634.06
2022-09-30T10:39:05.753Z,98634.75
2022-09-30T10:41:37.219Z,98623.38
2022-09-30T10:44:06.474Z,98634.16
2022-09-30T10:46:38.084Z,98624.94
2022-09-30T10:49:10.084Z,98629.41
2022-09-30T10:51:38.006Z,98625.50
2022-09-30T10:54:07.494Z,98621.91
2022-09-30T10:56:40.589Z,98625.09
2022-09-30T10:59:19.660Z,98623.19
2022-09-30T11:01:52.608Z,98625.13
2022-09-30T11:04:27.476Z,98627.03
2022-09-30T11:07:00.692Z,98620.66
2022-09-30T11:09:35.813Z,98620.97
2022-09-30T11:12:10.430Z,98625.50
2022-09-30T11:14:41.196Z,98621.69
2022-09-30T11:17:22.465Z,98620.84
2022-09-30T11:19:53.261Z,98622.88
2022-09-30T11:22:30.077Z,98621.06
2022-09-30T11:24:59.390Z,98626.63
2022-09-30T11:27:36.827Z,98625.25
2022-09-30T11:30:09.636Z,98628.22
2022-09-30T11:32:49.385Z,98625.75
2022-09-30T11:35:28.531Z,98618.25
2022-09-30T11:38:03.912Z,98617.03
2022-09-30T11:40:38.390Z,98619.72
2022-09-30T11:43:21.542Z,98621.81
2022-09-30T11:46:12.457Z,98625.06
2022-09-30T11:48:51.626Z,98619.44
2022-09-30T11:51:23.794Z,98612.44
2022-09-30T11:54:04.375Z,98625.53
2022-09-30T11:56:40.815Z,98615.84
2022-09-30T11:59:16.148Z,98615.75
2022-09-30T12:01:45.737Z,98611.94
2022-09-30T12:04:17.008Z,98614.34
2022-09-30T12:06:48.859Z,98615.66
2022-09-30T12:09:20.896Z,98621.19
2022-09-30T12:11:56.085Z,98613.66
2022-09-30T12:14:27.685Z,98612.06
2022-09-30T12:16:57.642Z,98618.03
2022-09-30T12:19:30.475Z,98618.09
2022-09-30T12:22:02.351Z,98617.50
2022-09-30T12:24:33.642Z,98622.88
2022-09-30T12:27:02.942Z,98615.91
2022-09-30T12:29:51.768Z,98618.03
2022-09-30T12:32:37.006Z,98619.69
2022-09-30T12:35:19.683Z,98611.31
2022-09-30T12:37:59.401Z,98627.63
2022-09-30T12:40:52.338Z,98626.78
2022-09-30T12:44:11.121Z,98625.81
2022-09-30T12:46:56.713Z,98626.78
2022-09-30T12:49:26.615Z,98627.50
2022-09-30T12:51:56.691Z,98620.72
2022-09-30T12:54:27.491Z,98625.31
2022-09-30T12:56:59.253Z,98623.75
2022-09-30T12:59:30.726Z,98616.84
2022-09-30T13:01:58.923Z,98620.63
2022-09-30T13:04:35.093Z,98611.38
2022-09-30T13:07:16.856Z,98612.94
2022-09-30T13:09:59.675Z,98609.97
2022-09-30T13:12:29.814Z,98611.91
2022-09-30T13:15:40.188Z,98625.94
2022-09-30T13:18:45.102Z,98624.75
2022-09-30T13:21:25.105Z,98622.28
2022-09-30T13:23:54.271Z,98616.47
2022-09-30T13:26:43.047Z,98619.63
2022-09-30T13:29:38.133Z,98628.53
2022-09-30T13:32:11.975Z,98618.66
2022-09-30T13:34:56.022Z,98617.56
2022-09-30T13:37:40.876Z,98622.75
2022-09-30T13:40:32.875Z,98619.09
2022-09-30T13:43:12.040Z,98628.66
2022-09-30T13:45:40.346Z,98619.50
2022-09-30T13:48:13.120Z,98618.19
2022-09-30T13:50:46.582Z,98611.91
2022-09-30T13:53:21.026Z,98616.25
2022-09-30T13:55:50.931Z,98616.75
2022-09-30T13:58:36.531Z,98607.75
2022-09-30T14:01:12.731Z,98609.94
2022-09-30T14:03:53.138Z,98602.59
2022-09-30T14:06:26.900Z,98607.25
2022-09-30T14:09:16.562Z,98607.84
2022-09-30T14:12:14.452Z,98610.91
2022-09-30T14:15:15.718Z,98603.91
2022-09-30T14:17:53.263Z,98611.72
2022-09-30T14:20:41.235Z,98613.84
2022-09-30T14:23:14.734Z,98607.16
2022-09-30T14:25:52.117Z,98608.97
2022-09-30T14:28:24.748Z,98602.41
2022-09-30T14:31:12.946Z,98605.81
2022-09-30T14:33:41.739Z,98598.00
2022-09-30T14:36:14.221Z,98597.13
2022-09-30T14:38:44.916Z,98594.47
2022-09-30T14:41:19.307Z,98593.31
2022-09-30T14:43:48.077Z,98585.56
2022-09-30T14:46:26.717Z,98582.75
2022-09-30T14:48:55.630Z,98584.44
2022-09-30T14:51:24.064Z,98566.59
2022-09-30T14:53:56.198Z,98575.34
2022-09-30T14:56:30.535Z,98574.38
2022-09-30T14:58:59.830Z,98580.06
2022-09-30T15:01:30.613Z,98577.03
2022-09-30T15:04:00.228Z,98567.75
2022-09-30T15:06:30.565Z,98566.88
2022-09-30T15:09:03.273Z,98568.22
2022-09-30T15:11:36.063Z,98557.19
2022-09-30T15:14:10.356Z,98561.97
2022-09-30T15:16:46.726Z,98566.75
2022-09-30T15:19:20.151Z,98562.13
2022-09-30T15:21:49.048Z,98571.63
2022-09-30T15:24:17.746Z,98556.94
2022-09-30T15:26:49.007Z,98569.59
2022-09-30T15:29:17.565Z,98563.06
2022-09-30T15:31:47.026Z,98565.66
2022-09-30T15:34:20.445Z,98560.41
2022-09-30T15:37:06.301Z,98563.16
2022-09-30T15:39:49.742Z,98562.66
2022-09-30T15:42:30.242Z,98560.13
2022-09-30T15:44:59.313Z,98559.31
2022-09-30T15:47:27.993Z,98558.47
2022-09-30T15:49:56.021Z,98560.28
2022-09-30T15:52:36.261Z,98559.66
2022-09-30T15:55:38.048Z,98558.00
2022-09-30T15:58:06.189Z,98552.69
2022-09-30T16:00:39.112Z,98561.34
2022-09-30T16:03:23.147Z,98568.03
2022-09-30T16:05:54.020Z,98562.78
2022-09-30T16:08:24.575Z,98563.44
2022-09-30T16:10:56.924Z,98561.63
2022-09-30T16:13:28.219Z,98562.50
2022-09-30T16:15:57.694Z,98560.38
2022-09-30T16:18:31.326Z,98565.78
2022-09-30T16:21:03.935Z,98566.84
2022-09-30T16:23:33.166Z,98565.97
2022-09-30T16:26:20.708Z,98575.63
2022-09-30T16:28:48.804Z,98572.13
2022-09-30T16:31:16.429Z,98567.13
2022-09-30T16:33:46.789Z,98572.88
2022-09-30T16:36:15.305Z,98577.19
2022-09-30T16:38:43.697Z,98580.88
2022-09-30T16:41:14.679Z,98581.72
2022-09-30T16:43:43.990Z,98574.38
2022-09-30T16:46:13.113Z,98586.13
2022-09-30T16:48:41.332Z,98587.19
2022-09-30T16:51:14.461Z,98581.81
2022-09-30T16:53:42.879Z,98584.66
2022-09-30T16:56:16.179Z,98592.03
2022-09-30T16:58:44.575Z,98587.69
2022-09-30T17:01:18.528Z,98587.69
2022-09-30T17:03:46.851Z,98592.25
2022-09-30T17:06:15.287Z,98592.06
2022-09-30T17:08:43.282Z,98594.72
2022-09-30T17:11:11.593Z,98597.38
2022-09-30T17:13:41.100Z,98592.88
2022-09-30T17:16:09.396Z,98595.59
2022-09-30T17:18:37.545Z,98587.59
2022-09-30T17:21:05.992Z,98594.09
2022-09-30T17:23:34.221Z,98596.28
2022-09-30T17:26:05.589Z,98590.22
2022-09-30T17:28:35.233Z,98605.50
2022-09-30T17:31:04.940Z,98599.84
2022-09-30T17:33:35.054Z,98608.22
2022-09-30T17:36:06.323Z,98609.03
2022-09-30T17:38:35.582Z,98615.53
2022-09-30T17:41:24.014Z,98617.31
2022-09-30T17:43:52.549Z,98621.41
2022-09-30T17:46:23.730Z,98624.31
2022-09-30T17:48:56.321Z,98637.03
2022-09-30T17:51:24.697Z,98631.47
2022-09-30T17:53:52.989Z,98633.72
2022-09-30T17:56:23.336Z,98635.31
2022-09-30T17:58:51.768Z,98638.22
2022-09-30T18:01:22.575Z,98640.03
2022-09-30T18:03:53.202Z,98628.97
2022-09-30T18:06:21.829Z,98635.00
2022-09-30T18:08:50.323Z,98636.47
2022-09-30T18:11:21.548Z,98639.19
2022-09-30T18:13:56.032Z,98636.31
2022-09-30T18:16:30.242Z,98644.06
2022-09-30T18:18:59.541Z,98645.31
2022-09-30T18:21:28.055Z,98642.94
2022-09-30T18:23:57.758Z,98644.22
2022-09-30T18:26:26.473Z,98632.22
2022-09-30T18:28:56.290Z,98626.94
2022-09-30T18:31:34.816Z,98622.09
2022-09-30T18:34:04.793Z,98622.06
2022-09-30T18:36:33.892Z,98617.28
2022-09-30T18:39:02.889Z,98626.91
2022-09-30T18:41:35.280Z,98617.97
2022-09-30T18:44:04.300Z,98622.50
2022-09-30T18:46:34.194Z,98624.09
2022-09-30T18:49:02.328Z,98628.06
2022-09-30T18:51:30.645Z,98628.38
2022-09-30T18:54:00.381Z,98637.75
2022-09-30T18:56:31.358Z,98636.31
2022-09-30T18:58:59.054Z,98640.72
2022-09-30T19:01:27.646Z,98638.94
2022-09-30T19:03:56.785Z,98649.72
2022-09-30T19:06:24.361Z,98643.44
2022-09-30T19:08:52.087Z,98641.41
2022-09-30T19:11:19.854Z,98645.91
2022-09-30T19:13:49.712Z,98640.72
2022-09-30T19:16:18.422Z,98641.81
2022-09-30T19:18:47.013Z,98625.22
2022-09-30T19:21:20.267Z,98631.06
2022-09-30T19:23:47.978Z,98630.97
2022-09-30T19:26:15.980Z,98634.63
2022-09-30T19:28:43.775Z,98641.44
2022-09-30T19:31:12.785Z,98642.47
2022-09-30T19:33:54.834Z,98647.56
2022-09-30T19:36:26.803Z,98646.34
2022-09-30T19:39:10.514Z,98658.59
2022-09-30T19:41:39.784Z,98664.69
2022-09-30T19:44:07.464Z,98671.66
2022-09-30T19:46:35.130Z,98677.84
2022-09-30T19:49:02.727Z,98671.34
2022-09-30T19:51:33.183Z,98674.44
2022-09-30T19:54:06.736Z,98665.84
2022-09-30T19:56:36.064Z,98675.47
2022-09-30T19:59:04.697Z,98671.34
2022-09-30T20:01:34.487Z,98675.00
2022-09-30T20:04:04.827Z,98684.59
2022-09-30T20:06:35.014Z,98676.84
2022-09-30T20:09:04.317Z,98676.59
2022-09-30T20:11:34.201Z,98674.50
2022-09-30T20:14:20.653Z,98665.75
2022-09-30T20:16:48.534Z,98671.25
2022-09-30T20:19:16.494Z,98661.94
2022-09-30T20:21:46.009Z,98654.63
2022-09-30T20:24:14.969Z,98652.94
2022-09-30T20:26:43.767Z,98651.53
2022-09-30T20:29:11.805Z,98653.47
2022-09-30T20:31:40.953Z,98656.50
2022-09-30T20:34:10.306Z,98661.81
2022-09-30T20:36:38.832Z,98659.94
2022-09-30T20:39:08.297Z,98662.47
2022-09-30T20:41:38.367Z,98663.25
2022-09-30T20:44:07.251Z,98664.25
2022-09-30T20:46:35.532Z,98670.38
2022-09-30T20:49:03.814Z,98672.59
2022-09-30T20:51:32.149Z,98679.63
2022-09-30T20:54:00.647Z,98678.84
2022-09-30T20:56:44.375Z,98684.47
2022-09-30T20:59:18.473Z,98690.88
2022-09-30T21:01:46.074Z,98683.75
2022-09-30T21:04:13.650Z,98683.91
2022-09-30T21:06:41.287Z,98677.06
2022-09-30T21:09:12.674Z,98671.09
2022-09-30T21:11:42.314Z,98677.56
2022-09-30T21:14:09.949Z,98678.63
2022-09-30T21:16:37.656Z,98673.59
2022-09-30T21:19:05.495Z,98670.88
2022-09-30T21:21:33.191Z,98671.53
2022-09-30T21:24:01.291Z,98651.91
2022-09-30T21:26:29.939Z,98648.22
2022-09-30T21:28:59.951Z,98650.06
2022-09-30T21:31:28.285Z,98654.59
2022-09-30T21:33:58.220Z,98648.00
2022-09-30T21:36:26.331Z,98634.19
2022-09-30T21:38:54.793Z,98636.81
2022-09-30T21:41:23.030Z,98634.53
2022-09-30T21:43:50.664Z,98631.78
2022-09-30T21:46:19.716Z,98631.16
2022-09-30T21:48:47.302Z,98628.09
2022-09-30T21:51:14.855Z,98626.69
2022-09-30T21:53:43.385Z,98625.69
2022-09-30T21:56:12.314Z,98629.75
2022-09-30T21:58:40.121Z,98627.75
2022-09-30T22:01:08.206Z,98624.06
2022-09-30T22:03:38.414Z,98622.28
2022-09-30T22:06:07.871Z,98623.91
2022-09-30T22:08:40.737Z,98616.53
2022-09-30T22:11:09.494Z,98605.72
2022-09-30T22:13:37.278Z,98615.94
2022-09-30T22:16:07.029Z,98626.41
2022-09-30T22:18:35.144Z,98622.84
2022-09-30T22:21:05.578Z,98626.69
2022-09-30T22:23:33.326Z,98628.31
2022-09-30T22:26:07.556Z,98634.28
2022-09-30T22:28:35.526Z,98624.06
2022-09-30T22:31:11.395Z,98629.78
2022-09-30T22:33:56.548Z,98617.00
2022-09-30T22:36:43.014Z,98614.44
2022-09-30T22:39:11.233Z,98620.56
2022-09-30T22:41:39.303Z,98627.06
2022-09-30T22:44:06.996Z,98612.31
2022-09-30T22:46:34.971Z,98617.72
2022-09-30T22:49:02.756Z,98605.34
2022-09-30T22:51:32.638Z,98607.28
2022-09-30T22:54:00.963Z,98609.47
2022-09-30T22:56:28.995Z,98612.94
2022-09-30T22:58:56.575Z,98616.09
2022-09-30T23:01:24.196Z,98620.63
2022-09-30T23:03:53.899Z,98619.56
2022-09-30T23:06:22.896Z,98621.28
2022-09-30T23:08:53.876Z,98611.38
2022-09-30T23:11:23.097Z,98618.00
2022-09-30T23:13:58.134Z,98618.28
2022-09-30T23:16:26.995Z,98610.75
2022-09-30T23:18:54.840Z,98606.00
2022-09-30T23:21:22.409Z,98615.97
2022-09-30T23:23:51.606Z,98616.56
2022-09-30T23:26:20.702Z,98610.31
2022-09-30T23:28:49.216Z,98609.47
2022-09-30T23:31:17.891Z,98600.31
2022-09-30T23:33:47.845Z,98596.97
2022-09-30T23:36:17.468Z,98599.88
2022-09-30T23:38:45.279Z,98602.44
2022-09-30T23:41:14.783Z,98589.38
2022-09-30T23:43:48.437Z,98590.22
2022-09-30T23:46:17.332Z,98590.09
2022-09-30T23:48:45.762Z,98578.72
2022-09-30T23:51:14.111Z,98588.03
2022-09-30T23:53:42.407Z,98584.50
2022-09-30T23:56:12.629Z,98590.75
2022-09-30T23:58:41.570Z,98583.97
